<?xml version="1.0" encoding="UTF-8" standalone="no" ?>
<gpx xmlns="http://www.topografix.com/GPX/1/1" xmlns:xsi="http://www.w3.org/2001/XMLSchema-instance" xsi:schemaLocation="http://www.topografix.com/GPX/1/1 http://www.topografix.com/GPX/1/1/gpx.xsd" version="1.1" creator="VisuGPX - https://www.visugpx.com">
  <metadata>
    <name>SER - La marre Asse</name>
    <desc><![CDATA[SER - La marre Asse]]></desc>
  </metadata>
  <trk>
    <name><![CDATA[Haute normandie foret du rouvray]]></name>
    <trkseg>
      <trkpt lat="49.2986" lon="1.02435">
        <ele>106.268</ele>
        <time>1998-03-25T14:44:06Z</time>
      </trkpt>
      <trkpt lat="49.2986" lon="1.02435">
        <ele>106.268</ele>
        <time>1998-03-25T14:44:06Z</time>
      </trkpt>
      <trkpt lat="49.29998" lon="1.02375">
        <ele>105.442</ele>
        <time>1998-03-25T14:44:39Z</time>
      </trkpt>
      <trkpt lat="49.30021" lon="1.02428">
        <ele>105.026</ele>
        <time>1998-03-25T14:44:51Z</time>
      </trkpt>
      <trkpt lat="49.30032" lon="1.02423">
        <ele>105.208</ele>
        <time>1998-03-25T14:44:55Z</time>
      </trkpt>
      <trkpt lat="49.31193" lon="1.01107">
        <ele>87.668</ele>
        <time>1998-03-25T14:52:06Z</time>
      </trkpt>
      <trkpt lat="49.31353" lon="1.01023">
        <ele>87.869</ele>
        <time>1998-03-25T14:52:41Z</time>
      </trkpt>
      <trkpt lat="49.31189" lon="1.00709">
        <ele>87.22</ele>
        <time>1998-03-25T14:53:33Z</time>
      </trkpt>
      <trkpt lat="49.31017" lon="1.00459">
        <ele>85.851</ele>
        <time>1998-03-25T14:54:16Z</time>
      </trkpt>
      <trkpt lat="49.30917" lon="1.00365">
        <ele>85.844</ele>
        <time>1998-03-25T14:54:36Z</time>
      </trkpt>
      <trkpt lat="49.30799" lon="1.00281">
        <ele>87.012</ele>
        <time>1998-03-25T14:55:03Z</time>
      </trkpt>
      <trkpt lat="49.31078" lon="0.99816">
        <ele>94.022</ele>
        <time>1998-03-25T14:56:39Z</time>
      </trkpt>
      <trkpt lat="49.31196" lon="0.99674">
        <ele>88.253</ele>
        <time>1998-03-25T14:57:08Z</time>
      </trkpt>
      <trkpt lat="49.31247" lon="0.99647">
        <ele>86.617</ele>
        <time>1998-03-25T14:57:23Z</time>
      </trkpt>
      <trkpt lat="49.31262" lon="0.99694">
        <ele>86.887</ele>
        <time>1998-03-25T14:57:32Z</time>
      </trkpt>
      <trkpt lat="49.31318" lon="0.99775">
        <ele>87.615</ele>
        <time>1998-03-25T14:57:53Z</time>
      </trkpt>
      <trkpt lat="49.31365" lon="0.99661">
        <ele>99.408</ele>
        <time>1998-03-25T14:58:34Z</time>
      </trkpt>
      <trkpt lat="49.31445" lon="0.99623">
        <ele>101.483</ele>
        <time>1998-03-25T14:59:05Z</time>
      </trkpt>
      <trkpt lat="49.31525" lon="0.9962">
        <ele>107.084</ele>
        <time>1998-03-25T14:59:39Z</time>
      </trkpt>
      <trkpt lat="49.31632" lon="0.99656">
        <ele>110.615</ele>
        <time>1998-03-25T15:00:23Z</time>
      </trkpt>
      <trkpt lat="49.31717" lon="0.99643">
        <ele>106.876</ele>
        <time>1998-03-25T15:00:51Z</time>
      </trkpt>
      <trkpt lat="49.31742" lon="0.99668">
        <ele>110.869</ele>
        <time>1998-03-25T15:01:16Z</time>
      </trkpt>
      <trkpt lat="49.31854" lon="0.99514">
        <ele>117.457</ele>
        <time>1998-03-25T15:02:45Z</time>
      </trkpt>
      <trkpt lat="49.31901" lon="0.99501">
        <ele>118.237</ele>
        <time>1998-03-25T15:03:07Z</time>
      </trkpt>
      <trkpt lat="49.32046" lon="0.99634">
        <ele>133.298</ele>
        <time>1998-03-25T15:05:24Z</time>
      </trkpt>
      <trkpt lat="49.32105" lon="0.99668">
        <ele>136.069</ele>
        <time>1998-03-25T15:06:07Z</time>
      </trkpt>
      <trkpt lat="49.32338" lon="1.00027">
        <ele>167.204</ele>
        <time>1998-03-25T15:12:26Z</time>
      </trkpt>
      <trkpt lat="49.3235" lon="1.00133">
        <ele>173.624</ele>
        <time>1998-03-25T15:13:05Z</time>
      </trkpt>
      <trkpt lat="49.32329" lon="1.00233">
        <ele>182.208</ele>
        <time>1998-03-25T15:14:26Z</time>
      </trkpt>
      <trkpt lat="49.32287" lon="1.00298">
        <ele>183.418</ele>
        <time>1998-03-25T15:15:00Z</time>
      </trkpt>
      <trkpt lat="49.32246" lon="1.00417">
        <ele>183.619</ele>
        <time>1998-03-25T15:15:31Z</time>
      </trkpt>
      <trkpt lat="49.32252" lon="1.0055">
        <ele>180.28</ele>
        <time>1998-03-25T15:15:54Z</time>
      </trkpt>
      <trkpt lat="49.32204" lon="1.00706">
        <ele>171.481</ele>
        <time>1998-03-25T15:16:19Z</time>
      </trkpt>
      <trkpt lat="49.32218" lon="1.00734">
        <ele>166.414</ele>
        <time>1998-03-25T15:16:27Z</time>
      </trkpt>
      <trkpt lat="49.32253" lon="1.00741">
        <ele>164.472</ele>
        <time>1998-03-25T15:16:37Z</time>
      </trkpt>
      <trkpt lat="49.32345" lon="1.00683">
        <ele>153.242</ele>
        <time>1998-03-25T15:16:53Z</time>
      </trkpt>
      <trkpt lat="49.32346" lon="1.00781">
        <ele>158.023</ele>
        <time>1998-03-25T15:17:28Z</time>
      </trkpt>
      <trkpt lat="49.32358" lon="1.0082">
        <ele>159.874</ele>
        <time>1998-03-25T15:17:43Z</time>
      </trkpt>
      <trkpt lat="49.3242" lon="1.00918">
        <ele>164.456</ele>
        <time>1998-03-25T15:18:28Z</time>
      </trkpt>
      <trkpt lat="49.32512" lon="1.01022">
        <ele>171.221</ele>
        <time>1998-03-25T15:19:26Z</time>
      </trkpt>
      <trkpt lat="49.32522" lon="1.01109">
        <ele>175.208</ele>
        <time>1998-03-25T15:20:02Z</time>
      </trkpt>
      <trkpt lat="49.3249" lon="1.01301">
        <ele>184.059</ele>
        <time>1998-03-25T15:21:18Z</time>
      </trkpt>
      <trkpt lat="49.32543" lon="1.0158">
        <ele>196.06</ele>
        <time>1998-03-25T15:23:07Z</time>
      </trkpt>
      <trkpt lat="49.32622" lon="1.01579">
        <ele>201.041</ele>
        <time>1998-03-25T15:23:53Z</time>
      </trkpt>
      <trkpt lat="49.32672" lon="1.01593">
        <ele>201.822</ele>
        <time>1998-03-25T15:24:12Z</time>
      </trkpt>
      <trkpt lat="49.32776" lon="1.01684">
        <ele>204.075</ele>
        <time>1998-03-25T15:24:52Z</time>
      </trkpt>
      <trkpt lat="49.32885" lon="1.01732">
        <ele>205.223</ele>
        <time>1998-03-25T15:25:28Z</time>
      </trkpt>
      <trkpt lat="49.32964" lon="1.01929">
        <ele>206.093</ele>
        <time>1998-03-25T15:26:05Z</time>
      </trkpt>
      <trkpt lat="49.33017" lon="1.01902">
        <ele>206.294</ele>
        <time>1998-03-25T15:26:17Z</time>
      </trkpt>
      <trkpt lat="49.33144" lon="1.01921">
        <ele>206.848</ele>
        <time>1998-03-25T15:26:42Z</time>
      </trkpt>
      <trkpt lat="49.3321" lon="1.01962">
        <ele>205.661</ele>
        <time>1998-03-25T15:26:55Z</time>
      </trkpt>
      <trkpt lat="49.33271" lon="1.01951">
        <ele>206.017</ele>
        <time>1998-03-25T15:27:07Z</time>
      </trkpt>
      <trkpt lat="49.33305" lon="1.01964">
        <ele>205.808</ele>
        <time>1998-03-25T15:27:14Z</time>
      </trkpt>
      <trkpt lat="49.33844" lon="1.03005">
        <ele>196.056</ele>
        <time>1998-03-25T15:30:38Z</time>
      </trkpt>
      <trkpt lat="49.33856" lon="1.03068">
        <ele>198.487</ele>
        <time>1998-03-25T15:30:52Z</time>
      </trkpt>
      <trkpt lat="49.3381" lon="1.0322">
        <ele>197.498</ele>
        <time>1998-03-25T15:31:17Z</time>
      </trkpt>
      <trkpt lat="49.33821" lon="1.03329">
        <ele>198.299</ele>
        <time>1998-03-25T15:31:34Z</time>
      </trkpt>
      <trkpt lat="49.3469" lon="1.03715">
        <ele>198.642</ele>
        <time>1998-03-25T15:35:00Z</time>
      </trkpt>
      <trkpt lat="49.34713" lon="1.03701">
        <ele>198.45</ele>
        <time>1998-03-25T15:35:04Z</time>
      </trkpt>
      <trkpt lat="49.34826" lon="1.03533">
        <ele>201.83</ele>
        <time>1998-03-25T15:35:35Z</time>
      </trkpt>
      <trkpt lat="49.3498" lon="1.03117">
        <ele>201.851</ele>
        <time>1998-03-25T15:36:42Z</time>
      </trkpt>
      <trkpt lat="49.34925" lon="1.03364">
        <ele>203.855</ele>
        <time>1998-03-25T15:37:17Z</time>
      </trkpt>
      <trkpt lat="49.34895" lon="1.03884">
        <ele>199.207</ele>
        <time>1998-03-25T15:38:21Z</time>
      </trkpt>
      <trkpt lat="49.3481" lon="1.04421">
        <ele>191.817</ele>
        <time>1998-03-25T15:39:22Z</time>
      </trkpt>
      <trkpt lat="49.37476" lon="1.06344">
        <ele>152.008</ele>
        <time>1998-03-25T15:47:10Z</time>
      </trkpt>
      <trkpt lat="49.37529" lon="1.06352">
        <ele>150.817</ele>
        <time>1998-03-25T15:47:20Z</time>
      </trkpt>
      <trkpt lat="49.38814" lon="1.05964">
        <ele>146.048</ele>
        <time>1998-03-25T15:51:21Z</time>
      </trkpt>
      <trkpt lat="49.38835" lon="1.06041">
        <ele>146.849</ele>
        <time>1998-03-25T15:56:08Z</time>
      </trkpt>
      <trkpt lat="49.38566" lon="1.06946">
        <ele>144.69</ele>
        <time>1998-03-25T15:59:44Z</time>
      </trkpt>
      <trkpt lat="49.38533" lon="1.07036">
        <ele>144.853</ele>
        <time>1998-03-25T16:00:49Z</time>
      </trkpt>
      <trkpt lat="49.38501" lon="1.07067">
        <ele>143.641</ele>
        <time>1998-03-25T16:01:01Z</time>
      </trkpt>
      <trkpt lat="49.3852" lon="1.07145">
        <ele>142.651</ele>
        <time>1998-03-25T16:01:13Z</time>
      </trkpt>
      <trkpt lat="49.38521" lon="1.07447">
        <ele>137.482</ele>
        <time>1998-03-25T16:01:49Z</time>
      </trkpt>
      <trkpt lat="49.38393" lon="1.07853">
        <ele>128.873</ele>
        <time>1998-03-25T16:02:47Z</time>
      </trkpt>
      <trkpt lat="49.38368" lon="1.07864">
        <ele>128.485</ele>
        <time>1998-03-25T16:02:53Z</time>
      </trkpt>
      <trkpt lat="49.38328" lon="1.07838">
        <ele>129.613</ele>
        <time>1998-03-25T16:03:05Z</time>
      </trkpt>
      <trkpt lat="49.38327" lon="1.07863">
        <ele>130.408</ele>
        <time>1998-03-25T16:03:20Z</time>
      </trkpt>
      <trkpt lat="49.38253" lon="1.07794">
        <ele>132.239</ele>
        <time>1998-03-25T16:04:42Z</time>
      </trkpt>
      <trkpt lat="49.38193" lon="1.07607">
        <ele>135.69</ele>
        <time>1998-03-25T16:05:18Z</time>
      </trkpt>
      <trkpt lat="49.38156" lon="1.07544">
        <ele>136.841</ele>
        <time>1998-03-25T16:05:32Z</time>
      </trkpt>
      <trkpt lat="49.3794" lon="1.07387">
        <ele>139.272</ele>
        <time>1998-03-25T16:06:25Z</time>
      </trkpt>
      <trkpt lat="49.37921" lon="1.07376">
        <ele>138.845</ele>
        <time>1998-03-25T16:06:29Z</time>
      </trkpt>
      <trkpt lat="49.37902" lon="1.07388">
        <ele>138.463</ele>
        <time>1998-03-25T16:06:34Z</time>
      </trkpt>
      <trkpt lat="49.37914" lon="1.07351">
        <ele>139.073</ele>
        <time>1998-03-25T16:07:09Z</time>
      </trkpt>
      <trkpt lat="49.37904" lon="1.07333">
        <ele>138.824</ele>
        <time>1998-03-25T16:07:13Z</time>
      </trkpt>
      <trkpt lat="49.37739" lon="1.0722">
        <ele>144.225</ele>
        <time>1998-03-25T16:07:49Z</time>
      </trkpt>
      <trkpt lat="49.37718" lon="1.0722">
        <ele>144.626</ele>
        <time>1998-03-25T16:07:55Z</time>
      </trkpt>
      <trkpt lat="49.3765" lon="1.07526">
        <ele>138.808</ele>
        <time>1998-03-25T16:09:09Z</time>
      </trkpt>
      <trkpt lat="49.3745" lon="1.08104">
        <ele>137.208</ele>
        <time>1998-03-25T16:11:08Z</time>
      </trkpt>
      <trkpt lat="49.3558" lon="1.06754">
        <ele>157.824</ele>
        <time>1998-03-25T16:19:05Z</time>
      </trkpt>
      <trkpt lat="49.35348" lon="1.07463">
        <ele>143.415</ele>
        <time>1998-03-25T16:20:45Z</time>
      </trkpt>
      <trkpt lat="49.35362" lon="1.07512">
        <ele>142.626</ele>
        <time>1998-03-25T16:20:55Z</time>
      </trkpt>
      <trkpt lat="49.35356" lon="1.07584">
        <ele>141.257</ele>
        <time>1998-03-25T16:21:09Z</time>
      </trkpt>
      <trkpt lat="49.35388" lon="1.07634">
        <ele>139.29</ele>
        <time>1998-03-25T16:22:13Z</time>
      </trkpt>
      <trkpt lat="49.35279" lon="1.07982">
        <ele>128.068</ele>
        <time>1998-03-25T16:23:01Z</time>
      </trkpt>
      <trkpt lat="49.35311" lon="1.0803">
        <ele>126.018</ele>
        <time>1998-03-25T16:23:23Z</time>
      </trkpt>
      <trkpt lat="49.35319" lon="1.0807">
        <ele>124.679</ele>
        <time>1998-03-25T16:23:32Z</time>
      </trkpt>
      <trkpt lat="49.35294" lon="1.08169">
        <ele>127.028</ele>
        <time>1998-03-25T16:24:34Z</time>
      </trkpt>
      <trkpt lat="49.35236" lon="1.08219">
        <ele>120.289</ele>
        <time>1998-03-25T16:24:44Z</time>
      </trkpt>
      <trkpt lat="49.35102" lon="1.08388">
        <ele>117.417</ele>
        <time>1998-03-25T16:25:19Z</time>
      </trkpt>
      <trkpt lat="49.35004" lon="1.08616">
        <ele>103.408</ele>
        <time>1998-03-25T16:25:39Z</time>
      </trkpt>
      <trkpt lat="49.34773" lon="1.09065">
        <ele>92.634</ele>
        <time>1998-03-25T16:26:32Z</time>
      </trkpt>
      <trkpt lat="49.34701" lon="1.09179">
        <ele>91.215</ele>
        <time>1998-03-25T16:26:47Z</time>
      </trkpt>
      <trkpt lat="49.34535" lon="1.09319">
        <ele>89.046</ele>
        <time>1998-03-25T16:28:37Z</time>
      </trkpt>
      <trkpt lat="49.34505" lon="1.09441">
        <ele>86.687</ele>
        <time>1998-03-25T16:28:57Z</time>
      </trkpt>
      <trkpt lat="49.34482" lon="1.09484">
        <ele>85.23</ele>
        <time>1998-03-25T16:29:03Z</time>
      </trkpt>
      <trkpt lat="49.34337" lon="1.09573">
        <ele>83.268</ele>
        <time>1998-03-25T16:29:27Z</time>
      </trkpt>
      <trkpt lat="49.34209" lon="1.09621">
        <ele>81.298</ele>
        <time>1998-03-25T16:29:49Z</time>
      </trkpt>
      <trkpt lat="49.34157" lon="1.09614">
        <ele>80.449</ele>
        <time>1998-03-25T16:29:58Z</time>
      </trkpt>
      <trkpt lat="49.3409" lon="1.09549">
        <ele>80.015</ele>
        <time>1998-03-25T16:30:21Z</time>
      </trkpt>
      <trkpt lat="49.34218" lon="1.09917">
        <ele>81.065</ele>
        <time>1998-03-25T16:31:21Z</time>
      </trkpt>
      <trkpt lat="49.34238" lon="1.10015">
        <ele>82.011</ele>
        <time>1998-03-25T16:31:38Z</time>
      </trkpt>
      <trkpt lat="49.34048" lon="1.10159">
        <ele>81.808</ele>
        <time>1998-03-25T16:32:19Z</time>
      </trkpt>
      <trkpt lat="49.33947" lon="1.10188">
        <ele>87.253</ele>
        <time>1998-03-25T16:32:51Z</time>
      </trkpt>
      <trkpt lat="49.33687" lon="1.10216">
        <ele>85.824</ele>
        <time>1998-03-25T16:33:41Z</time>
      </trkpt>
      <trkpt lat="49.3362" lon="1.10202">
        <ele>84.415</ele>
        <time>1998-03-25T16:33:51Z</time>
      </trkpt>
      <trkpt lat="49.33364" lon="1.10033">
        <ele>86.826</ele>
        <time>1998-03-25T16:34:38Z</time>
      </trkpt>
      <trkpt lat="49.3332" lon="1.10025">
        <ele>85.469</ele>
        <time>1998-03-25T16:34:44Z</time>
      </trkpt>
      <trkpt lat="49.33234" lon="1.10045">
        <ele>80.267</ele>
        <time>1998-03-25T16:34:55Z</time>
      </trkpt>
      <trkpt lat="49.33189" lon="1.10008">
        <ele>79.097</ele>
        <time>1998-03-25T16:35:02Z</time>
      </trkpt>
      <trkpt lat="49.33152" lon="1.10061">
        <ele>79.458</ele>
        <time>1998-03-25T16:35:10Z</time>
      </trkpt>
      <trkpt lat="49.33115" lon="1.10087">
        <ele>79.472</ele>
        <time>1998-03-25T16:35:16Z</time>
      </trkpt>
      <trkpt lat="49.32917" lon="1.10169">
        <ele>80.213</ele>
        <time>1998-03-25T16:35:49Z</time>
      </trkpt>
      <trkpt lat="49.32879" lon="1.10228">
        <ele>80.214</ele>
        <time>1998-03-25T16:36:12Z</time>
      </trkpt>
      <trkpt lat="49.32853" lon="1.10376">
        <ele>78.808</ele>
        <time>1998-03-25T16:36:37Z</time>
      </trkpt>
      <trkpt lat="49.32832" lon="1.10418">
        <ele>79.429</ele>
        <time>1998-03-25T16:36:46Z</time>
      </trkpt>
      <trkpt lat="49.32812" lon="1.10424">
        <ele>79.22</ele>
        <time>1998-03-25T16:36:50Z</time>
      </trkpt>
    </trkseg>
  </trk>
  <trk>
    <name><![CDATA[SER - La marre Asse_2]]></name>
    <trkseg>
      <trkpt lat="49.32887" lon="1.10533">
        <ele>8</ele>
        <time>1998-01-28T14:35:55Z</time>
      </trkpt>
      <trkpt lat="49.32966" lon="1.10713">
        <ele>9</ele>
        <time>1998-01-28T14:36:27Z</time>
      </trkpt>
      <trkpt lat="49.33202" lon="1.11037">
        <ele>7</ele>
        <time>1998-01-28T14:37:40Z</time>
      </trkpt>
      <trkpt lat="49.3314" lon="1.11151">
        <ele>17</ele>
        <time>1998-01-28T14:38:29Z</time>
      </trkpt>
      <trkpt lat="49.3335" lon="1.11414">
        <ele>15</ele>
        <time>1998-01-28T14:39:35Z</time>
      </trkpt>
      <trkpt lat="49.3338" lon="1.11543">
        <ele>21</ele>
        <time>1998-01-28T14:39:59Z</time>
      </trkpt>
      <trkpt lat="49.33356" lon="1.11723">
        <ele>31</ele>
        <time>1998-01-28T14:40:33Z</time>
      </trkpt>
      <trkpt lat="49.33291" lon="1.11924">
        <ele>47</ele>
        <time>1998-01-28T14:41:28Z</time>
      </trkpt>
      <trkpt lat="49.33219" lon="1.12071">
        <ele>53</ele>
        <time>1998-01-28T14:42:12Z</time>
      </trkpt>
      <trkpt lat="49.33103" lon="1.12195">
        <ele>62</ele>
        <time>1998-01-28T14:43:16Z</time>
      </trkpt>
      <trkpt lat="49.33058" lon="1.12323">
        <ele>67</ele>
        <time>1998-01-28T14:43:59Z</time>
      </trkpt>
      <trkpt lat="49.33102" lon="1.12518">
        <ele>77</ele>
        <time>1998-01-28T14:44:55Z</time>
      </trkpt>
      <trkpt lat="49.33086" lon="1.13011">
        <ele>11.608</ele>
        <time>1998-01-28T14:47:06Z</time>
      </trkpt>
      <trkpt lat="49.33106" lon="1.13102">
        <ele>13.898</ele>
        <time>1998-01-28T14:47:28Z</time>
      </trkpt>
      <trkpt lat="49.33148" lon="1.132">
        <ele>17.498</ele>
        <time>1998-01-28T14:47:58Z</time>
      </trkpt>
      <trkpt lat="49.32865" lon="1.13316">
        <ele>20.448</ele>
        <time>1998-01-28T14:49:30Z</time>
      </trkpt>
    </trkseg>
  </trk>
  <trk>
    <name><![CDATA[SER - La marre Asse_3]]></name>
    <trkseg>
      <trkpt lat="49.32556" lon="1.13685">
        <ele>25.844</ele>
        <time>1998-01-28T14:56:00Z</time>
      </trkpt>
      <trkpt lat="49.32475" lon="1.13801">
        <ele>21.899</ele>
        <time>1998-01-28T14:57:03Z</time>
      </trkpt>
      <trkpt lat="49.32291" lon="1.14208">
        <ele>52</ele>
        <time>1998-01-28T14:57:47Z</time>
      </trkpt>
      <trkpt lat="49.32197" lon="1.14525">
        <ele>23</ele>
        <time>1998-01-28T14:58:09Z</time>
      </trkpt>
      <trkpt lat="49.32177" lon="1.14554">
        <ele>22</ele>
        <time>1998-01-28T14:58:23Z</time>
      </trkpt>
      <trkpt lat="49.32122" lon="1.14781">
        <ele>17</ele>
        <time>1998-01-28T14:58:52Z</time>
      </trkpt>
      <trkpt lat="49.3205" lon="1.14816">
        <ele>14</ele>
        <time>1998-01-28T14:59:05Z</time>
      </trkpt>
      <trkpt lat="49.31919" lon="1.148">
        <ele>11</ele>
        <time>1998-01-28T14:59:26Z</time>
      </trkpt>
      <trkpt lat="49.31911" lon="1.15073">
        <ele>10</ele>
        <time>1998-01-28T15:00:02Z</time>
      </trkpt>
      <trkpt lat="49.31879" lon="1.15347">
        <ele>8</ele>
        <time>1998-01-28T15:00:39Z</time>
      </trkpt>
      <trkpt lat="49.31898" lon="1.158">
        <ele>10</ele>
        <time>1998-01-28T15:01:39Z</time>
      </trkpt>
      <trkpt lat="49.31854" lon="1.15842">
        <ele>9</ele>
        <time>1998-01-28T15:01:49Z</time>
      </trkpt>
      <trkpt lat="49.31784" lon="1.15866">
        <ele>9</ele>
        <time>1998-01-28T15:02:05Z</time>
      </trkpt>
      <trkpt lat="49.31561" lon="1.15874">
        <ele>10</ele>
        <time>1998-01-28T15:03:00Z</time>
      </trkpt>
      <trkpt lat="49.31145" lon="1.15785">
        <ele>8</ele>
        <time>1998-01-28T15:04:23Z</time>
      </trkpt>
      <trkpt lat="49.30965" lon="1.15804">
        <ele>9</ele>
        <time>1998-01-28T15:05:03Z</time>
      </trkpt>
      <trkpt lat="49.30473" lon="1.15899">
        <ele>17</ele>
        <time>1998-01-28T15:07:35Z</time>
      </trkpt>
      <trkpt lat="49.30382" lon="1.15934">
        <ele>22</ele>
        <time>1998-01-28T15:08:09Z</time>
      </trkpt>
      <trkpt lat="49.30301" lon="1.16025">
        <ele>24</ele>
        <time>1998-01-28T15:08:44Z</time>
      </trkpt>
      <trkpt lat="49.30211" lon="1.16057">
        <ele>25</ele>
        <time>1998-01-28T15:09:11Z</time>
      </trkpt>
      <trkpt lat="49.30029" lon="1.1601">
        <ele>26</ele>
        <time>1998-01-28T15:10:06Z</time>
      </trkpt>
      <trkpt lat="49.29979" lon="1.15979">
        <ele>28</ele>
        <time>1998-01-28T15:10:22Z</time>
      </trkpt>
      <trkpt lat="49.2979" lon="1.1571">
        <ele>39</ele>
        <time>1998-01-28T15:12:13Z</time>
      </trkpt>
      <trkpt lat="49.29708" lon="1.15657">
        <ele>47</ele>
        <time>1998-01-28T15:13:03Z</time>
      </trkpt>
      <trkpt lat="49.29613" lon="1.15618">
        <ele>53</ele>
        <time>1998-01-28T15:13:54Z</time>
      </trkpt>
      <trkpt lat="49.29576" lon="1.15572">
        <ele>56</ele>
        <time>1998-01-28T15:14:13Z</time>
      </trkpt>
      <trkpt lat="49.29559" lon="1.15574">
        <ele>56</ele>
        <time>1998-01-28T15:14:17Z</time>
      </trkpt>
      <trkpt lat="49.2952" lon="1.15628">
        <ele>57</ele>
        <time>1998-01-28T15:14:29Z</time>
      </trkpt>
      <trkpt lat="49.29494" lon="1.15635">
        <ele>59</ele>
        <time>1998-01-28T15:14:36Z</time>
      </trkpt>
      <trkpt lat="49.28941" lon="1.15709">
        <ele>62</ele>
        <time>1998-01-28T15:17:15Z</time>
      </trkpt>
      <trkpt lat="49.29069" lon="1.14585">
        <ele>46</ele>
        <time>1998-01-28T15:19:46Z</time>
      </trkpt>
      <trkpt lat="49.29157" lon="1.13941">
        <ele>57</ele>
        <time>1998-01-28T15:21:37Z</time>
      </trkpt>
      <trkpt lat="49.29314" lon="1.12515">
        <ele>49</ele>
        <time>1998-01-28T15:25:19Z</time>
      </trkpt>
      <trkpt lat="49.29336" lon="1.12428">
        <ele>47</ele>
        <time>1998-01-28T15:25:31Z</time>
      </trkpt>
      <trkpt lat="49.29396" lon="1.12342">
        <ele>46</ele>
        <time>1998-01-28T15:25:48Z</time>
      </trkpt>
      <trkpt lat="49.29365" lon="1.12144">
        <ele>42</ele>
        <time>1998-01-28T15:26:21Z</time>
      </trkpt>
      <trkpt lat="49.28895" lon="1.11556">
        <ele>49</ele>
        <time>1998-01-28T15:29:09Z</time>
      </trkpt>
      <trkpt lat="49.28937" lon="1.11522">
        <ele>48</ele>
        <time>1998-01-28T15:30:33Z</time>
      </trkpt>
      <trkpt lat="49.2905" lon="1.11503">
        <ele>44</ele>
        <time>1998-01-28T15:31:03Z</time>
      </trkpt>
      <trkpt lat="49.29168" lon="1.1145">
        <ele>39</ele>
        <time>1998-01-28T15:31:34Z</time>
      </trkpt>
      <trkpt lat="49.29162" lon="1.11426">
        <ele>41</ele>
        <time>1998-01-28T15:31:41Z</time>
      </trkpt>
      <trkpt lat="49.29028" lon="1.11253">
        <ele>45</ele>
        <time>1998-01-28T15:32:38Z</time>
      </trkpt>
      <trkpt lat="49.28882" lon="1.11075">
        <ele>45</ele>
        <time>1998-01-28T15:33:38Z</time>
      </trkpt>
      <trkpt lat="49.28847" lon="1.11107">
        <ele>50</ele>
        <time>1998-01-28T15:33:54Z</time>
      </trkpt>
      <trkpt lat="49.28837" lon="1.11149">
        <ele>52</ele>
        <time>1998-01-28T15:34:11Z</time>
      </trkpt>
      <trkpt lat="49.28727" lon="1.11342">
        <ele>60</ele>
        <time>1998-01-28T15:35:09Z</time>
      </trkpt>
      <trkpt lat="49.2853" lon="1.11096">
        <ele>68</ele>
        <time>1998-01-28T15:36:49Z</time>
      </trkpt>
      <trkpt lat="49.28556" lon="1.1066">
        <ele>57</ele>
        <time>1998-01-28T15:38:16Z</time>
      </trkpt>
      <trkpt lat="49.27888" lon="1.09807">
        <ele>19.674</ele>
        <time>1998-01-28T15:43:22Z</time>
      </trkpt>
      <trkpt lat="49.2788" lon="1.09759">
        <ele>19.419</ele>
        <time>1998-01-28T15:46:31Z</time>
      </trkpt>
      <trkpt lat="49.27921" lon="1.09522">
        <ele>7.019</ele>
        <time>1998-01-28T15:47:04Z</time>
      </trkpt>
      <trkpt lat="49.27926" lon="1.09343">
        <ele>62</ele>
        <time>1998-01-28T15:47:22Z</time>
      </trkpt>
      <trkpt lat="49.27653" lon="1.09004">
        <ele>4.289</ele>
        <time>1998-01-28T15:48:49Z</time>
      </trkpt>
      <trkpt lat="49.27614" lon="1.08913">
        <ele>3.017</ele>
        <time>1998-01-28T15:49:20Z</time>
      </trkpt>
      <trkpt lat="49.27401" lon="1.08673">
        <ele>60</ele>
        <time>1998-01-28T15:50:06Z</time>
      </trkpt>
      <trkpt lat="49.27457" lon="1.08511">
        <ele>57</ele>
        <time>1998-01-28T15:50:38Z</time>
      </trkpt>
      <trkpt lat="49.27512" lon="1.08274">
        <ele>52</ele>
        <time>1998-01-28T15:51:07Z</time>
      </trkpt>
      <trkpt lat="49.27516" lon="1.08187">
        <ele>50</ele>
        <time>1998-01-28T15:51:17Z</time>
      </trkpt>
      <trkpt lat="49.27289" lon="1.07861">
        <ele>54</ele>
        <time>1998-01-28T15:52:37Z</time>
      </trkpt>
      <trkpt lat="49.27248" lon="1.07861">
        <ele>57</ele>
        <time>1998-01-28T15:52:53Z</time>
      </trkpt>
      <trkpt lat="49.27215" lon="1.07785">
        <ele>55</ele>
        <time>1998-01-28T15:53:10Z</time>
      </trkpt>
      <trkpt lat="49.27119" lon="1.07639">
        <ele>55</ele>
        <time>1998-01-28T15:53:42Z</time>
      </trkpt>
      <trkpt lat="49.26996" lon="1.07493">
        <ele>53</ele>
        <time>1998-01-28T15:54:18Z</time>
      </trkpt>
      <trkpt lat="49.26966" lon="1.07401">
        <ele>54</ele>
        <time>1998-01-28T15:54:34Z</time>
      </trkpt>
      <trkpt lat="49.26973" lon="1.0738">
        <ele>54</ele>
        <time>1998-01-28T15:54:38Z</time>
      </trkpt>
      <trkpt lat="49.27378" lon="1.07081">
        <ele>37</ele>
        <time>1998-01-28T15:56:01Z</time>
      </trkpt>
      <trkpt lat="49.27601" lon="1.06892">
        <ele>31</ele>
        <time>1998-01-28T15:57:30Z</time>
      </trkpt>
      <trkpt lat="49.27625" lon="1.06848">
        <ele>31</ele>
        <time>1998-01-28T15:57:39Z</time>
      </trkpt>
      <trkpt lat="49.27518" lon="1.06683">
        <ele>35</ele>
        <time>1998-01-28T15:58:18Z</time>
      </trkpt>
      <trkpt lat="49.27065" lon="1.061">
        <ele>34</ele>
        <time>1998-01-28T16:00:23Z</time>
      </trkpt>
      <trkpt lat="49.27039" lon="1.0602">
        <ele>34</ele>
        <time>1998-01-28T16:00:37Z</time>
      </trkpt>
      <trkpt lat="49.26975" lon="1.05928">
        <ele>38</ele>
        <time>1998-01-28T16:00:59Z</time>
      </trkpt>
      <trkpt lat="49.26785" lon="1.05556">
        <ele>37</ele>
        <time>1998-01-28T16:02:22Z</time>
      </trkpt>
      <trkpt lat="49.26782" lon="1.05527">
        <ele>37</ele>
        <time>1998-01-28T16:02:27Z</time>
      </trkpt>
      <trkpt lat="49.26799" lon="1.05384">
        <ele>36</ele>
        <time>1998-01-28T16:02:51Z</time>
      </trkpt>
      <trkpt lat="49.2693" lon="1.05138">
        <ele>32</ele>
        <time>1998-01-28T16:03:28Z</time>
      </trkpt>
      <trkpt lat="49.27007" lon="1.05123">
        <ele>32</ele>
        <time>1998-01-28T16:03:42Z</time>
      </trkpt>
      <trkpt lat="49.27085" lon="1.05045">
        <ele>29</ele>
        <time>1998-01-28T16:03:57Z</time>
      </trkpt>
      <trkpt lat="49.27182" lon="1.05037">
        <ele>29</ele>
        <time>1998-01-28T16:04:16Z</time>
      </trkpt>
      <trkpt lat="49.2726" lon="1.05065">
        <ele>29</ele>
        <time>1998-01-28T16:04:31Z</time>
      </trkpt>
      <trkpt lat="49.27449" lon="1.05022">
        <ele>30</ele>
        <time>1998-01-28T16:05:09Z</time>
      </trkpt>
      <trkpt lat="49.2762" lon="1.05022">
        <ele>26</ele>
        <time>1998-01-28T16:05:40Z</time>
      </trkpt>
      <trkpt lat="49.27756" lon="1.0497">
        <ele>21</ele>
        <time>1998-01-28T16:06:08Z</time>
      </trkpt>
      <trkpt lat="49.27978" lon="1.05025">
        <ele>18</ele>
        <time>1998-01-28T16:06:44Z</time>
      </trkpt>
      <trkpt lat="49.28207" lon="1.04987">
        <ele>18</ele>
        <time>1998-01-28T16:07:27Z</time>
      </trkpt>
      <trkpt lat="49.28487" lon="1.04919">
        <ele>14</ele>
        <time>1998-01-28T16:08:05Z</time>
      </trkpt>
      <trkpt lat="49.28702" lon="1.04765">
        <ele>10</ele>
        <time>1998-01-28T16:08:39Z</time>
      </trkpt>
      <trkpt lat="49.28869" lon="1.04711">
        <ele>9</ele>
        <time>1998-01-28T16:09:06Z</time>
      </trkpt>
      <trkpt lat="49.29081" lon="1.04608">
        <ele>8</ele>
        <time>1998-01-28T16:09:47Z</time>
      </trkpt>
      <trkpt lat="49.29099" lon="1.04603">
        <ele>8</ele>
        <time>1998-01-28T16:09:52Z</time>
      </trkpt>
      <trkpt lat="49.29101" lon="1.04615">
        <ele>8</ele>
        <time>1998-01-28T16:09:57Z</time>
      </trkpt>
      <trkpt lat="49.29116" lon="1.04582">
        <ele>8</ele>
        <time>1998-01-28T16:10:13Z</time>
      </trkpt>
      <trkpt lat="49.29458" lon="1.04399">
        <ele>5</ele>
        <time>1998-01-28T16:11:25Z</time>
      </trkpt>
      <trkpt lat="49.29401" lon="1.03801">
        <ele>5</ele>
        <time>1998-01-28T16:12:51Z</time>
      </trkpt>
      <trkpt lat="49.29394" lon="1.03548">
        <ele>7</ele>
        <time>1998-01-28T16:13:25Z</time>
      </trkpt>
      <trkpt lat="49.29301" lon="1.03095">
        <ele>5</ele>
        <time>1998-01-28T16:14:31Z</time>
      </trkpt>
      <trkpt lat="49.29272" lon="1.03028">
        <ele>4</ele>
        <time>1998-01-28T16:14:43Z</time>
      </trkpt>
      <trkpt lat="49.29278" lon="1.02977">
        <ele>4</ele>
        <time>1998-01-28T16:14:51Z</time>
      </trkpt>
      <trkpt lat="49.29244" lon="1.02768">
        <ele>4</ele>
        <time>1998-01-28T16:15:23Z</time>
      </trkpt>
      <trkpt lat="49.2922" lon="1.02289">
        <ele>5</ele>
        <time>1998-01-28T16:16:26Z</time>
      </trkpt>
      <trkpt lat="49.29249" lon="1.01269">
        <ele>3</ele>
        <time>1998-01-28T16:18:39Z</time>
      </trkpt>
      <trkpt lat="49.29213" lon="1.01217">
        <ele>5</ele>
        <time>1998-01-28T16:18:59Z</time>
      </trkpt>
      <trkpt lat="49.29127" lon="1.01173">
        <ele>8</ele>
        <time>1998-01-28T16:19:20Z</time>
      </trkpt>
      <trkpt lat="49.29146" lon="1.01012">
        <ele>11</ele>
        <time>1998-01-28T16:20:17Z</time>
      </trkpt>
      <trkpt lat="49.2922" lon="1.01016">
        <ele>9</ele>
        <time>1998-01-28T16:20:40Z</time>
      </trkpt>
      <trkpt lat="49.29721" lon="1.0113">
        <ele>15</ele>
        <time>1998-01-28T16:22:14Z</time>
      </trkpt>
      <trkpt lat="49.29729" lon="1.01283">
        <ele>16</ele>
        <time>1998-01-28T16:22:37Z</time>
      </trkpt>
      <trkpt lat="49.29747" lon="1.0127">
        <ele>16</ele>
        <time>1998-01-28T16:22:44Z</time>
      </trkpt>
      <trkpt lat="49.29881" lon="1.01302">
        <ele>19</ele>
        <time>1998-01-28T16:23:17Z</time>
      </trkpt>
      <trkpt lat="49.29914" lon="1.01286">
        <ele>18</ele>
        <time>1998-01-28T16:23:25Z</time>
      </trkpt>
      <trkpt lat="49.2993" lon="1.01318">
        <ele>18</ele>
        <time>1998-01-28T16:23:43Z</time>
      </trkpt>
      <trkpt lat="49.29941" lon="1.01313">
        <ele>18</ele>
        <time>1998-01-28T16:24:14Z</time>
      </trkpt>
      <trkpt lat="49.29928" lon="1.01436">
        <ele>19</ele>
        <time>1998-01-28T16:24:31Z</time>
      </trkpt>
      <trkpt lat="49.29796" lon="1.01415">
        <ele>20</ele>
        <time>1998-01-28T16:25:06Z</time>
      </trkpt>
      <trkpt lat="49.29731" lon="1.01417">
        <ele>18</ele>
        <time>1998-01-28T16:25:27Z</time>
      </trkpt>
      <trkpt lat="49.29727" lon="1.01429">
        <ele>18</ele>
        <time>1998-01-28T16:25:31Z</time>
      </trkpt>
      <trkpt lat="49.29702" lon="1.01932">
        <ele>20</ele>
        <time>1998-01-28T16:27:15Z</time>
      </trkpt>
      <trkpt lat="49.29742" lon="1.02272">
        <ele>18</ele>
        <time>1998-01-28T16:28:18Z</time>
      </trkpt>
      <trkpt lat="49.29783" lon="1.02467">
        <ele>20</ele>
        <time>1998-01-28T16:28:50Z</time>
      </trkpt>
    </trkseg>
  </trk>
  <trk>
    <name><![CDATA[SER - La marre Asse_4]]></name>
    <trkseg>
      <trkpt lat="49.3256" lon="1.13692">
        <ele>87.2</ele>
      </trkpt>
      <trkpt lat="49.32869" lon="1.13322">
        <ele>81.7</ele>
      </trkpt>
    </trkseg>
  </trk>
</gpx>